sensor_id;sensor_type;location;lat;lon;timestamp;temperature;humidity
54461;DHT22;40371;49.414;11.010;2022-07-23T00:00:14;22.30;99.90
54461;DHT22;40371;49.414;11.010;2022-07-23T00:02:40;22.20;99.90
54461;DHT22;40371;49.414;11.010;2022-07-23T00:05:07;22.30;99.90
54461;DHT22;40371;49.414;11.010;2022-07-23T00:07:32;22.10;99.90
54461;DHT22;40371;49.414;11.010;2022-07-23T00:09:58;22.20;99.90
54461;DHT22;40371;49.414;11.010;2022-07-23T00:12:23;22.10;99.90
54461;DHT22;40371;49.414;11.010;2022-07-23T00:14:49;21.90;99.90
54461;DHT22;40371;49.414;11.010;2022-07-23T00:17:15;21.70;99.90
54461;DHT22;40371;49.414;11.010;2022-07-23T00:19:40;21.60;99.90
54461;DHT22;40371;49.414;11.010;2022-07-23T00:22:06;21.40;99.90
54461;DHT22;40371;49.414;11.010;2022-07-23T00:24:32;21.10;99.90
54461;DHT22;40371;49.414;11.010;2022-07-23T00:26:57;21.20;99.90
54461;DHT22;40371;49.414;11.010;2022-07-23T00:29:23;21.40;99.90
54461;DHT22;40371;49.414;11.010;2022-07-23T00:31:48;21.50;99.90
54461;DHT22;40371;49.414;11.010;2022-07-23T00:34:14;21.50;99.90
54461;DHT22;40371;49.414;11.010;2022-07-23T00:36:40;21.50;99.90
54461;DHT22;40371;49.414;11.010;2022-07-23T00:39:06;21.50;99.90
54461;DHT22;40371;49.414;11.010;2022-07-23T00:41:32;21.60;99.90
54461;DHT22;40371;49.414;11.010;2022-07-23T00:44:18;21.70;99.90
54461;DHT22;40371;49.414;11.010;2022-07-23T00:46:52;21.50;99.90
54461;DHT22;40371;49.414;11.010;2022-07-23T00:49:24;21.50;99.90
54461;DHT22;40371;49.414;11.010;2022-07-23T00:51:50;21.40;99.90
54461;DHT22;40371;49.414;11.010;2022-07-23T00:54:16;21.60;99.90
54461;DHT22;40371;49.414;11.010;2022-07-23T00:56:46;21.60;99.90
54461;DHT22;40371;49.414;11.010;2022-07-23T00:59:12;21.50;99.90
54461;DHT22;40371;49.414;11.010;2022-07-23T01:01:38;21.40;99.90
54461;DHT22;40371;49.414;11.010;2022-07-23T01:04:04;21.50;99.90
54461;DHT22;40371;49.414;11.010;2022-07-23T01:06:34;21.70;99.90
54461;DHT22;40371;49.414;11.010;2022-07-23T01:09:00;21.80;99.90
54461;DHT22;40371;49.414;11.010;2022-07-23T01:11:26;21.80;99.90
54461;DHT22;40371;49.414;11.010;2022-07-23T01:13:52;21.80;99.90
54461;DHT22;40371;49.414;11.010;2022-07-23T01:16:19;21.70;99.90
54461;DHT22;40371;49.414;11.010;2022-07-23T01:18:45;21.80;99.90
54461;DHT22;40371;49.414;11.010;2022-07-23T01:21:21;21.80;99.90
54461;DHT22;40371;49.414;11.010;2022-07-23T01:23:49;21.80;99.90
54461;DHT22;40371;49.414;11.010;2022-07-23T01:26:15;21.90;99.90
54461;DHT22;40371;49.414;11.010;2022-07-23T01:28:43;22.00;99.90
54461;DHT22;40371;49.414;11.010;2022-07-23T01:31:09;21.90;99.90
54461;DHT22;40371;49.414;11.010;2022-07-23T01:33:35;21.80;99.90
54461;DHT22;40371;49.414;11.010;2022-07-23T01:36:00;21.60;99.90
54461;DHT22;40371;49.414;11.010;2022-07-23T01:38:26;21.70;99.90
54461;DHT22;40371;49.414;11.010;2022-07-23T01:40:52;21.80;99.90
54461;DHT22;40371;49.414;11.010;2022-07-23T01:43:17;21.90;99.90
54461;DHT22;40371;49.414;11.010;2022-07-23T01:45:43;22.00;99.90
54461;DHT22;40371;49.414;11.010;2022-07-23T01:48:10;22.00;99.90
54461;DHT22;40371;49.414;11.010;2022-07-23T01:50:36;21.70;99.90
54461;DHT22;40371;49.414;11.010;2022-07-23T01:53:17;21.60;99.90
54461;DHT22;40371;49.414;11.010;2022-07-23T01:55:43;21.70;99.90
54461;DHT22;40371;49.414;11.010;2022-07-23T01:58:09;21.50;99.90
54461;DHT22;40371;49.414;11.010;2022-07-23T02:00:35;21.30;99.90
54461;DHT22;40371;49.414;11.010;2022-07-23T02:03:01;21.60;99.90
54461;DHT22;40371;49.414;11.010;2022-07-23T02:05:27;21.60;99.90
54461;DHT22;40371;49.414;11.010;2022-07-23T02:07:59;21.50;99.90
54461;DHT22;40371;49.414;11.010;2022-07-23T02:10:25;21.50;99.90
54461;DHT22;40371;49.414;11.010;2022-07-23T02:12:51;21.50;99.90
54461;DHT22;40371;49.414;11.010;2022-07-23T02:15:16;21.50;99.90
54461;DHT22;40371;49.414;11.010;2022-07-23T02:17:42;21.40;99.90
54461;DHT22;40371;49.414;11.010;2022-07-23T02:20:09;21.40;99.90
54461;DHT22;40371;49.414;11.010;2022-07-23T02:22:35;21.20;99.90
54461;DHT22;40371;49.414;11.010;2022-07-23T02:25:02;21.10;99.90
54461;DHT22;40371;49.414;11.010;2022-07-23T02:27:28;21.00;99.90
54461;DHT22;40371;49.414;11.010;2022-07-23T02:29:54;21.30;99.90
54461;DHT22;40371;49.414;11.010;2022-07-23T02:32:20;21.10;99.90
54461;DHT22;40371;49.414;11.010;2022-07-23T02:34:47;21.10;99.90
54461;DHT22;40371;49.414;11.010;2022-07-23T02:37:13;21.20;99.90
54461;DHT22;40371;49.414;11.010;2022-07-23T02:39:40;21.00;99.90
54461;DHT22;40371;49.414;11.010;2022-07-23T02:42:06;20.90;99.90
54461;DHT22;40371;49.414;11.010;2022-07-23T02:44:33;20.90;99.90
54461;DHT22;40371;49.414;11.010;2022-07-23T02:46:59;20.90;99.90
54461;DHT22;40371;49.414;11.010;2022-07-23T02:49:24;20.90;99.90
54461;DHT22;40371;49.414;11.010;2022-07-23T02:51:50;21.10;99.90
54461;DHT22;40371;49.414;11.010;2022-07-23T02:54:16;21.10;99.90
54461;DHT22;40371;49.414;11.010;2022-07-23T02:56:42;21.30;99.90
54461;DHT22;40371;49.414;11.010;2022-07-23T02:59:07;21.20;99.90
54461;DHT22;40371;49.414;11.010;2022-07-23T03:01:34;21.10;99.90
54461;DHT22;40371;49.414;11.010;2022-07-23T03:03:59;21.20;99.90
54461;DHT22;40371;49.414;11.010;2022-07-23T03:06:25;21.30;99.90
54461;DHT22;40371;49.414;11.010;2022-07-23T03:08:51;21.10;99.90
54461;DHT22;40371;49.414;11.010;2022-07-23T03:11:16;21.00;99.90
54461;DHT22;40371;49.414;11.010;2022-07-23T03:13:42;21.20;99.90
54461;DHT22;40371;49.414;11.010;2022-07-23T03:16:08;21.30;99.90
54461;DHT22;40371;49.414;11.010;2022-07-23T03:18:36;21.30;99.90
54461;DHT22;40371;49.414;11.010;2022-07-23T03:21:03;21.30;99.90
54461;DHT22;40371;49.414;11.010;2022-07-23T03:23:28;21.10;99.90
54461;DHT22;40371;49.414;11.010;2022-07-23T03:25:54;21.30;99.90
54461;DHT22;40371;49.414;11.010;2022-07-23T03:28:20;21.00;99.90
54461;DHT22;40371;49.414;11.010;2022-07-23T03:30:47;21.20;99.90
54461;DHT22;40371;49.414;11.010;2022-07-23T03:33:16;21.20;99.90
54461;DHT22;40371;49.414;11.010;2022-07-23T03:35:43;21.20;99.90
54461;DHT22;40371;49.414;11.010;2022-07-23T03:38:20;21.10;99.90
54461;DHT22;40371;49.414;11.010;2022-07-23T03:40:46;21.10;99.90
54461;DHT22;40371;49.414;11.010;2022-07-23T03:43:11;21.00;99.90
54461;DHT22;40371;49.414;11.010;2022-07-23T03:45:37;21.00;99.90
54461;DHT22;40371;49.414;11.010;2022-07-23T03:48:03;21.10;99.90
54461;DHT22;40371;49.414;11.010;2022-07-23T03:50:29;21.10;99.90
54461;DHT22;40371;49.414;11.010;2022-07-23T03:52:55;21.10;99.90
54461;DHT22;40371;49.414;11.010;2022-07-23T03:55:21;21.10;99.90
54461;DHT22;40371;49.414;11.010;2022-07-23T03:57:46;21.10;99.90
54461;DHT22;40371;49.414;11.010;2022-07-23T04:00:12;21.10;99.90
54461;DHT22;40371;49.414;11.010;2022-07-23T04:02:43;20.90;99.90
54461;DHT22;40371;49.414;11.010;2022-07-23T04:05:10;20.80;99.90
54461;DHT22;40371;49.414;11.010;2022-07-23T04:07:37;20.80;99.90
54461;DHT22;40371;49.414;11.010;2022-07-23T04:10:02;20.80;99.90
54461;DHT22;40371;49.414;11.010;2022-07-23T04:12:28;20.70;99.90
54461;DHT22;40371;49.414;11.010;2022-07-23T04:14:54;20.60;99.90
54461;DHT22;40371;49.414;11.010;2022-07-23T04:17:20;20.50;99.90
54461;DHT22;40371;49.414;11.010;2022-07-23T04:19:46;20.40;99.90
54461;DHT22;40371;49.414;11.010;2022-07-23T04:22:14;20.40;99.90
54461;DHT22;40371;49.414;11.010;2022-07-23T04:24:41;20.30;99.90
54461;DHT22;40371;49.414;11.010;2022-07-23T04:27:08;20.40;99.90
54461;DHT22;40371;49.414;11.010;2022-07-23T04:29:33;20.20;99.90
54461;DHT22;40371;49.414;11.010;2022-07-23T04:31:59;20.20;99.90
54461;DHT22;40371;49.414;11.010;2022-07-23T04:34:25;20.20;99.90
54461;DHT22;40371;49.414;11.010;2022-07-23T04:36:52;20.40;99.90
54461;DHT22;40371;49.414;11.010;2022-07-23T04:39:19;20.40;99.90
54461;DHT22;40371;49.414;11.010;2022-07-23T04:41:45;20.30;99.90
54461;DHT22;40371;49.414;11.010;2022-07-23T04:44:11;20.70;99.90
54461;DHT22;40371;49.414;11.010;2022-07-23T04:46:37;20.70;99.90
54461;DHT22;40371;49.414;11.010;2022-07-23T04:49:05;20.90;99.90
54461;DHT22;40371;49.414;11.010;2022-07-23T04:51:31;20.70;99.90
54461;DHT22;40371;49.414;11.010;2022-07-23T04:53:59;20.60;99.90
54461;DHT22;40371;49.414;11.010;2022-07-23T04:56:25;20.50;99.90
54461;DHT22;40371;49.414;11.010;2022-07-23T04:58:50;20.70;99.90
54461;DHT22;40371;49.414;11.010;2022-07-23T05:01:16;20.80;99.90
54461;DHT22;40371;49.414;11.010;2022-07-23T05:03:42;21.00;99.90
54461;DHT22;40371;49.414;11.010;2022-07-23T05:06:08;21.00;99.90
54461;DHT22;40371;49.414;11.010;2022-07-23T05:08:34;21.20;99.90
54461;DHT22;40371;49.414;11.010;2022-07-23T05:10:59;21.30;99.90
54461;DHT22;40371;49.414;11.010;2022-07-23T05:13:27;21.50;99.90
54461;DHT22;40371;49.414;11.010;2022-07-23T05:15:53;21.40;99.90
54461;DHT22;40371;49.414;11.010;2022-07-23T05:18:19;21.40;99.90
54461;DHT22;40371;49.414;11.010;2022-07-23T05:20:44;21.50;99.90
54461;DHT22;40371;49.414;11.010;2022-07-23T05:23:14;21.60;99.90
54461;DHT22;40371;49.414;11.010;2022-07-23T05:25:40;21.50;99.90
54461;DHT22;40371;49.414;11.010;2022-07-23T05:28:06;21.70;99.90
54461;DHT22;40371;49.414;11.010;2022-07-23T05:30:33;21.80;99.90
54461;DHT22;40371;49.414;11.010;2022-07-23T05:33:01;21.90;99.90
54461;DHT22;40371;49.414;11.010;2022-07-23T05:35:27;22.10;99.90
54461;DHT22;40371;49.414;11.010;2022-07-23T05:38:07;22.30;99.90
54461;DHT22;40371;49.414;11.010;2022-07-23T05:40:34;22.50;99.90
54461;DHT22;40371;49.414;11.010;2022-07-23T05:42:59;22.70;99.90
54461;DHT22;40371;49.414;11.010;2022-07-23T05:45:25;22.90;99.90
54461;DHT22;40371;49.414;11.010;2022-07-23T05:47:51;23.10;99.90
54461;DHT22;40371;49.414;11.010;2022-07-23T05:50:25;23.20;99.90
54461;DHT22;40371;49.414;11.010;2022-07-23T05:52:57;23.40;99.90
54461;DHT22;40371;49.414;11.010;2022-07-23T05:55:43;23.40;99.90
54461;DHT22;40371;49.414;11.010;2022-07-23T05:58:09;23.50;99.90
54461;DHT22;40371;49.414;11.010;2022-07-23T06:00:35;23.60;99.90
54461;DHT22;40371;49.414;11.010;2022-07-23T06:03:01;23.60;99.90
54461;DHT22;40371;49.414;11.010;2022-07-23T06:05:29;23.70;99.90
54461;DHT22;40371;49.414;11.010;2022-07-23T06:07:56;23.60;99.90
54461;DHT22;40371;49.414;11.010;2022-07-23T06:10:23;23.60;99.90
54461;DHT22;40371;49.414;11.010;2022-07-23T06:12:48;23.70;99.90
54461;DHT22;40371;49.414;11.010;2022-07-23T06:15:14;23.80;99.90
54461;DHT22;40371;49.414;11.010;2022-07-23T06:17:40;23.90;99.90
54461;DHT22;40371;49.414;11.010;2022-07-23T06:20:07;24.00;99.90
54461;DHT22;40371;49.414;11.010;2022-07-23T06:22:36;24.10;99.90
54461;DHT22;40371;49.414;11.010;2022-07-23T06:25:02;24.20;99.90
54461;DHT22;40371;49.414;11.010;2022-07-23T06:27:28;24.20;99.90
54461;DHT22;40371;49.414;11.010;2022-07-23T06:29:54;24.40;99.90
54461;DHT22;40371;49.414;11.010;2022-07-23T06:32:20;24.50;99.90
54461;DHT22;40371;49.414;11.010;2022-07-23T06:34:46;24.60;99.90
54461;DHT22;40371;49.414;11.010;2022-07-23T06:37:12;24.60;99.90
54461;DHT22;40371;49.414;11.010;2022-07-23T06:39:37;24.80;99.90
54461;DHT22;40371;49.414;11.010;2022-07-23T06:42:03;24.90;99.90
54461;DHT22;40371;49.414;11.010;2022-07-23T06:44:37;25.00;99.90
54461;DHT22;40371;49.414;11.010;2022-07-23T06:47:03;25.30;99.90
54461;DHT22;40371;49.414;11.010;2022-07-23T06:49:29;25.60;99.90
54461;DHT22;40371;49.414;11.010;2022-07-23T06:51:56;25.80;99.90
54461;DHT22;40371;49.414;11.010;2022-07-23T06:54:22;26.00;99.90
54461;DHT22;40371;49.414;11.010;2022-07-23T06:56:48;25.80;99.90
54461;DHT22;40371;49.414;11.010;2022-07-23T06:59:14;25.90;99.90
54461;DHT22;40371;49.414;11.010;2022-07-23T07:01:42;25.90;99.90
54461;DHT22;40371;49.414;11.010;2022-07-23T07:04:08;25.90;99.90
54461;DHT22;40371;49.414;11.010;2022-07-23T07:06:34;26.00;99.90
54461;DHT22;40371;49.414;11.010;2022-07-23T07:08:59;26.20;99.90
54461;DHT22;40371;49.414;11.010;2022-07-23T07:11:25;26.20;99.90
54461;DHT22;40371;49.414;11.010;2022-07-23T07:13:51;26.30;99.90
54461;DHT22;40371;49.414;11.010;2022-07-23T07:16:17;26.40;99.90
54461;DHT22;40371;49.414;11.010;2022-07-23T07:18:42;26.30;99.90
54461;DHT22;40371;49.414;11.010;2022-07-23T07:21:08;26.10;99.90
54461;DHT22;40371;49.414;11.010;2022-07-23T07:23:33;26.00;99.90
54461;DHT22;40371;49.414;11.010;2022-07-23T07:25:59;26.00;99.90
54461;DHT22;40371;49.414;11.010;2022-07-23T07:28:25;25.90;99.90
54461;DHT22;40371;49.414;11.010;2022-07-23T07:30:50;25.90;99.90
54461;DHT22;40371;49.414;11.010;2022-07-23T07:33:16;25.90;99.90
54461;DHT22;40371;49.414;11.010;2022-07-23T07:35:41;25.90;99.90
54461;DHT22;40371;49.414;11.010;2022-07-23T07:38:07;25.80;99.90
54461;DHT22;40371;49.414;11.010;2022-07-23T07:40:33;25.80;99.90
54461;DHT22;40371;49.414;11.010;2022-07-23T07:42:58;25.80;99.90
54461;DHT22;40371;49.414;11.010;2022-07-23T07:45:24;25.80;99.90
54461;DHT22;40371;49.414;11.010;2022-07-23T07:47:51;25.60;99.90
54461;DHT22;40371;49.414;11.010;2022-07-23T07:50:18;25.50;99.90
54461;DHT22;40371;49.414;11.010;2022-07-23T07:52:44;25.50;99.90
54461;DHT22;40371;49.414;11.010;2022-07-23T07:55:10;25.50;99.90
54461;DHT22;40371;49.414;11.010;2022-07-23T07:57:37;25.40;99.90
54461;DHT22;40371;49.414;11.010;2022-07-23T08:00:04;25.30;99.90
54461;DHT22;40371;49.414;11.010;2022-07-23T08:02:41;25.40;99.90
54461;DHT22;40371;49.414;11.010;2022-07-23T08:05:07;25.60;99.90
54461;DHT22;40371;49.414;11.010;2022-07-23T08:07:33;25.90;99.90
54461;DHT22;40371;49.414;11.010;2022-07-23T08:09:58;26.00;99.90
54461;DHT22;40371;49.414;11.010;2022-07-23T08:12:24;25.80;99.90
54461;DHT22;40371;49.414;11.010;2022-07-23T08:14:49;25.70;99.90
54461;DHT22;40371;49.414;11.010;2022-07-23T08:17:15;25.80;99.90
54461;DHT22;40371;49.414;11.010;2022-07-23T08:19:40;26.00;99.90
54461;DHT22;40371;49.414;11.010;2022-07-23T08:22:06;26.00;99.90
54461;DHT22;40371;49.414;11.010;2022-07-23T08:24:32;26.10;99.90
54461;DHT22;40371;49.414;11.010;2022-07-23T08:26:57;26.10;99.90
54461;DHT22;40371;49.414;11.010;2022-07-23T08:29:23;26.00;99.90
54461;DHT22;40371;49.414;11.010;2022-07-23T08:31:48;25.80;99.90
54461;DHT22;40371;49.414;11.010;2022-07-23T08:34:14;25.70;99.90
54461;DHT22;40371;49.414;11.010;2022-07-23T08:36:39;25.60;99.90
54461;DHT22;40371;49.414;11.010;2022-07-23T08:39:05;25.60;99.90
54461;DHT22;40371;49.414;11.010;2022-07-23T08:41:31;25.40;99.90
54461;DHT22;40371;49.414;11.010;2022-07-23T08:43:56;25.30;99.90
54461;DHT22;40371;49.414;11.010;2022-07-23T08:46:24;25.30;99.90
54461;DHT22;40371;49.414;11.010;2022-07-23T08:48:50;25.30;99.90
54461;DHT22;40371;49.414;11.010;2022-07-23T08:51:16;25.20;99.90
54461;DHT22;40371;49.414;11.010;2022-07-23T08:53:42;25.10;99.90
54461;DHT22;40371;49.414;11.010;2022-07-23T08:56:09;25.00;99.90
54461;DHT22;40371;49.414;11.010;2022-07-23T08:58:35;24.50;99.90
54461;DHT22;40371;49.414;11.010;2022-07-23T09:01:00;24.10;99.90
54461;DHT22;40371;49.414;11.010;2022-07-23T09:03:34;23.60;99.90
54461;DHT22;40371;49.414;11.010;2022-07-23T09:06:01;23.30;99.90
54461;DHT22;40371;49.414;11.010;2022-07-23T09:08:38;22.90;99.90
54461;DHT22;40371;49.414;11.010;2022-07-23T09:11:12;22.80;99.90
54461;DHT22;40371;49.414;11.010;2022-07-23T09:13:45;22.50;99.90
54461;DHT22;40371;49.414;11.010;2022-07-23T09:16:17;22.30;99.90
54461;DHT22;40371;49.414;11.010;2022-07-23T09:19:04;22.20;99.90
54461;DHT22;40371;49.414;11.010;2022-07-23T09:21:35;22.00;99.90
54461;DHT22;40371;49.414;11.010;2022-07-23T09:24:02;21.70;99.90
54461;DHT22;40371;49.414;11.010;2022-07-23T09:26:36;21.70;99.90
54461;DHT22;40371;49.414;11.010;2022-07-23T09:29:04;21.80;99.90
54461;DHT22;40371;49.414;11.010;2022-07-23T09:31:47;21.50;99.90
54461;DHT22;40371;49.414;11.010;2022-07-23T09:36:43;21.10;99.90
54461;DHT22;40371;49.414;11.010;2022-07-23T09:39:10;20.90;99.90
54461;DHT22;40371;49.414;11.010;2022-07-23T09:41:45;21.00;99.90
54461;DHT22;40371;49.414;11.010;2022-07-23T09:44:18;20.90;99.90
54461;DHT22;40371;49.414;11.010;2022-07-23T09:46:46;21.00;99.90
54461;DHT22;40371;49.414;11.010;2022-07-23T09:49:20;20.90;99.90
54461;DHT22;40371;49.414;11.010;2022-07-23T09:51:58;20.70;99.90
54461;DHT22;40371;49.414;11.010;2022-07-23T09:54:27;20.60;99.90
54461;DHT22;40371;49.414;11.010;2022-07-23T09:56:55;20.90;99.90
54461;DHT22;40371;49.414;11.010;2022-07-23T09:59:26;20.70;99.90
54461;DHT22;40371;49.414;11.010;2022-07-23T10:01:57;20.70;99.90
54461;DHT22;40371;49.414;11.010;2022-07-23T10:04:28;20.60;99.90
54461;DHT22;40371;49.414;11.010;2022-07-23T10:07:19;20.50;99.90
54461;DHT22;40371;49.414;11.010;2022-07-23T10:10:06;20.40;99.90
54461;DHT22;40371;49.414;11.010;2022-07-23T10:12:55;20.50;99.90
54461;DHT22;40371;49.414;11.010;2022-07-23T10:15:41;20.70;99.90
54461;DHT22;40371;49.414;11.010;2022-07-23T10:18:08;20.70;99.90
54461;DHT22;40371;49.414;11.010;2022-07-23T10:20:35;20.80;99.90
54461;DHT22;40371;49.414;11.010;2022-07-23T10:26:09;21.00;99.90
54461;DHT22;40371;49.414;11.010;2022-07-23T10:31:37;21.10;99.90
54461;DHT22;40371;49.414;11.010;2022-07-23T10:36:51;21.10;99.90
54461;DHT22;40371;49.414;11.010;2022-07-23T10:39:28;20.80;99.90
54461;DHT22;40371;49.414;11.010;2022-07-23T10:42:11;20.70;99.90
54461;DHT22;40371;49.414;11.010;2022-07-23T10:44:42;20.60;99.90
54461;DHT22;40371;49.414;11.010;2022-07-23T10:47:09;20.80;99.90
54461;DHT22;40371;49.414;11.010;2022-07-23T10:49:43;21.00;99.90
54461;DHT22;40371;49.414;11.010;2022-07-23T10:52:20;20.90;99.90
54461;DHT22;40371;49.414;11.010;2022-07-23T10:54:47;21.10;99.90
54461;DHT22;40371;49.414;11.010;2022-07-23T10:57:15;21.60;99.90
54461;DHT22;40371;49.414;11.010;2022-07-23T11:02:26;21.70;99.90
54461;DHT22;40371;49.414;11.010;2022-07-23T11:04:53;21.80;99.90
54461;DHT22;40371;49.414;11.010;2022-07-23T11:07:19;21.60;99.90
54461;DHT22;40371;49.414;11.010;2022-07-23T11:09:45;21.40;99.90
54461;DHT22;40371;49.414;11.010;2022-07-23T11:25:51;22.20;99.90
54461;DHT22;40371;49.414;11.010;2022-07-23T11:28:17;22.20;99.90
54461;DHT22;40371;49.414;11.010;2022-07-23T11:30:46;22.00;99.90
54461;DHT22;40371;49.414;11.010;2022-07-23T11:35:44;22.10;99.90
54461;DHT22;40371;49.414;11.010;2022-07-23T11:38:23;22.20;99.90
54461;DHT22;40371;49.414;11.010;2022-07-23T11:40:54;22.40;99.90
54461;DHT22;40371;49.414;11.010;2022-07-23T11:43:20;22.60;99.90
54461;DHT22;40371;49.414;11.010;2022-07-23T11:45:52;23.00;99.90
54461;DHT22;40371;49.414;11.010;2022-07-23T11:48:27;23.10;99.90
54461;DHT22;40371;49.414;11.010;2022-07-23T11:50:54;25.80;99.90
54461;DHT22;40371;49.414;11.010;2022-07-23T11:53:26;27.50;99.90
54461;DHT22;40371;49.414;11.010;2022-07-23T11:55:52;28.40;99.90
54461;DHT22;40371;49.414;11.010;2022-07-23T11:58:18;27.20;99.90
54461;DHT22;40371;49.414;11.010;2022-07-23T12:00:44;26.90;99.90
54461;DHT22;40371;49.414;11.010;2022-07-23T12:03:10;26.80;99.90
54461;DHT22;40371;49.414;11.010;2022-07-23T12:05:37;26.70;99.90
54461;DHT22;40371;49.414;11.010;2022-07-23T12:08:05;26.70;99.90
54461;DHT22;40371;49.414;11.010;2022-07-23T12:10:35;27.20;99.90
54461;DHT22;40371;49.414;11.010;2022-07-23T12:13:12;27.70;99.90
54461;DHT22;40371;49.414;11.010;2022-07-23T12:15:41;27.60;99.90
54461;DHT22;40371;49.414;11.010;2022-07-23T12:18:09;27.90;99.90
54461;DHT22;40371;49.414;11.010;2022-07-23T12:20:41;28.50;99.90
54461;DHT22;40371;49.414;11.010;2022-07-23T12:23:09;28.80;99.90
54461;DHT22;40371;49.414;11.010;2022-07-23T12:25:38;28.80;99.90
54461;DHT22;40371;49.414;11.010;2022-07-23T12:28:07;28.90;99.90
54461;DHT22;40371;49.414;11.010;2022-07-23T12:30:40;28.60;99.90
54461;DHT22;40371;49.414;11.010;2022-07-23T12:33:08;28.60;99.90
54461;DHT22;40371;49.414;11.010;2022-07-23T12:38:05;28.60;99.90
54461;DHT22;40371;49.414;11.010;2022-07-23T12:40:37;28.60;99.90
54461;DHT22;40371;49.414;11.010;2022-07-23T12:45:57;28.40;99.90
54461;DHT22;40371;49.414;11.010;2022-07-23T12:48:27;28.10;99.90
54461;DHT22;40371;49.414;11.010;2022-07-23T12:53:31;27.70;99.90
54461;DHT22;40371;49.414;11.010;2022-07-23T12:56:06;27.70;99.90
54461;DHT22;40371;49.414;11.010;2022-07-23T12:59:13;27.60;99.90
54461;DHT22;40371;49.414;11.010;2022-07-23T13:01:40;27.50;99.90
54461;DHT22;40371;49.414;11.010;2022-07-23T13:04:09;27.40;99.90
54461;DHT22;40371;49.414;11.010;2022-07-23T13:06:37;27.50;99.90
54461;DHT22;40371;49.414;11.010;2022-07-23T13:09:05;27.50;99.90
54461;DHT22;40371;49.414;11.010;2022-07-23T13:11:31;27.50;99.90
54461;DHT22;40371;49.414;11.010;2022-07-23T13:13:57;27.70;99.90
54461;DHT22;40371;49.414;11.010;2022-07-23T13:16:23;27.60;99.90
54461;DHT22;40371;49.414;11.010;2022-07-23T13:18:49;27.50;99.90
54461;DHT22;40371;49.414;11.010;2022-07-23T13:21:14;27.70;99.90
54461;DHT22;40371;49.414;11.010;2022-07-23T13:23:41;27.80;99.90
54461;DHT22;40371;49.414;11.010;2022-07-23T13:26:07;28.10;99.90
54461;DHT22;40371;49.414;11.010;2022-07-23T13:28:33;28.10;99.90
54461;DHT22;40371;49.414;11.010;2022-07-23T13:30:58;28.10;99.90
54461;DHT22;40371;49.414;11.010;2022-07-23T13:33:25;28.40;99.90
54461;DHT22;40371;49.414;11.010;2022-07-23T13:35:51;28.60;99.90
54461;DHT22;40371;49.414;11.010;2022-07-23T13:38:19;28.30;99.90
54461;DHT22;40371;49.414;11.010;2022-07-23T13:40:46;28.30;99.90
54461;DHT22;40371;49.414;11.010;2022-07-23T13:43:15;28.80;99.90
54461;DHT22;40371;49.414;11.010;2022-07-23T13:45:41;28.70;99.90
54461;DHT22;40371;49.414;11.010;2022-07-23T13:48:08;28.60;99.90
54461;DHT22;40371;49.414;11.010;2022-07-23T13:50:35;28.40;99.90
54461;DHT22;40371;49.414;11.010;2022-07-23T13:53:06;28.20;99.90
54461;DHT22;40371;49.414;11.010;2022-07-23T13:55:33;28.30;99.90
54461;DHT22;40371;49.414;11.010;2022-07-23T13:57:59;28.50;99.90
54461;DHT22;40371;49.414;11.010;2022-07-23T14:00:26;28.60;99.90
54461;DHT22;40371;49.414;11.010;2022-07-23T14:02:52;28.60;99.90
54461;DHT22;40371;49.414;11.010;2022-07-23T14:05:18;29.10;99.90
54461;DHT22;40371;49.414;11.010;2022-07-23T14:07:43;29.00;99.90
54461;DHT22;40371;49.414;11.010;2022-07-23T14:10:10;28.90;99.90
54461;DHT22;40371;49.414;11.010;2022-07-23T14:12:37;28.60;99.90
54461;DHT22;40371;49.414;11.010;2022-07-23T14:15:04;28.60;99.90
54461;DHT22;40371;49.414;11.010;2022-07-23T14:17:30;28.50;99.90
54461;DHT22;40371;49.414;11.010;2022-07-23T14:19:57;28.20;99.90
54461;DHT22;40371;49.414;11.010;2022-07-23T14:22:23;28.10;99.90
54461;DHT22;40371;49.414;11.010;2022-07-23T14:24:49;28.00;99.90
54461;DHT22;40371;49.414;11.010;2022-07-23T14:27:17;28.10;99.90
54461;DHT22;40371;49.414;11.010;2022-07-23T14:29:43;28.10;99.90
54461;DHT22;40371;49.414;11.010;2022-07-23T14:32:09;27.90;99.90
54461;DHT22;40371;49.414;11.010;2022-07-23T14:34:35;27.60;99.90
54461;DHT22;40371;49.414;11.010;2022-07-23T14:37:01;27.60;99.90
54461;DHT22;40371;49.414;11.010;2022-07-23T14:39:27;27.60;99.90
54461;DHT22;40371;49.414;11.010;2022-07-23T14:41:52;27.60;99.90
54461;DHT22;40371;49.414;11.010;2022-07-23T14:44:18;27.70;99.90
54461;DHT22;40371;49.414;11.010;2022-07-23T14:46:44;27.90;99.90
54461;DHT22;40371;49.414;11.010;2022-07-23T14:49:09;28.00;99.90
54461;DHT22;40371;49.414;11.010;2022-07-23T14:51:35;28.00;99.90
54461;DHT22;40371;49.414;11.010;2022-07-23T14:54:03;28.00;99.90
54461;DHT22;40371;49.414;11.010;2022-07-23T14:56:29;28.00;99.90
54461;DHT22;40371;49.414;11.010;2022-07-23T14:58:54;27.90;99.90
54461;DHT22;40371;49.414;11.010;2022-07-23T15:01:22;27.80;99.90
54461;DHT22;40371;49.414;11.010;2022-07-23T15:03:49;27.80;99.90
54461;DHT22;40371;49.414;11.010;2022-07-23T15:06:15;27.90;99.90
54461;DHT22;40371;49.414;11.010;2022-07-23T15:08:41;28.00;99.90
54461;DHT22;40371;49.414;11.010;2022-07-23T15:11:07;28.00;99.90
54461;DHT22;40371;49.414;11.010;2022-07-23T15:13:35;28.10;99.90
54461;DHT22;40371;49.414;11.010;2022-07-23T15:16:00;28.20;99.90
54461;DHT22;40371;49.414;11.010;2022-07-23T15:18:26;28.20;98.30
54461;DHT22;40371;49.414;11.010;2022-07-23T15:20:52;28.10;98.40
54461;DHT22;40371;49.414;11.010;2022-07-23T15:23:17;28.20;98.30
54461;DHT22;40371;49.414;11.010;2022-07-23T15:25:43;28.20;98.30
54461;DHT22;40371;49.414;11.010;2022-07-23T15:28:08;28.00;98.10
54461;DHT22;40371;49.414;11.010;2022-07-23T15:30:34;28.00;97.80
54461;DHT22;40371;49.414;11.010;2022-07-23T15:33:00;28.00;98.10
54461;DHT22;40371;49.414;11.010;2022-07-23T15:35:25;28.00;97.10
54461;DHT22;40371;49.414;11.010;2022-07-23T15:37:51;28.00;97.40
54461;DHT22;40371;49.414;11.010;2022-07-23T15:40:16;28.10;98.00
54461;DHT22;40371;49.414;11.010;2022-07-23T15:42:42;28.20;97.30
54461;DHT22;40371;49.414;11.010;2022-07-23T15:45:08;28.20;97.10
54461;DHT22;40371;49.414;11.010;2022-07-23T15:47:33;28.30;96.40
54461;DHT22;40371;49.414;11.010;2022-07-23T15:49:59;28.40;96.30
54461;DHT22;40371;49.414;11.010;2022-07-23T15:52:25;28.40;95.70
54461;DHT22;40371;49.414;11.010;2022-07-23T15:54:50;28.30;95.40